sensor_id;sensor_type;location;lat;lon;timestamp;temperature;humidity
18141;DHT22;9196;49.194;12.526;2024-03-02T00:00:49;7.00;99.90
18141;DHT22;9196;49.194;12.526;2024-03-02T00:03:16;7.00;99.90
18141;DHT22;9196;49.194;12.526;2024-03-02T00:05:46;7.00;99.90
18141;DHT22;9196;49.194;12.526;2024-03-02T00:08:22;7.10;99.90
18141;DHT22;9196;49.194;12.526;2024-03-02T00:10:49;7.10;99.90
18141;DHT22;9196;49.194;12.526;2024-03-02T00:13:16;7.10;99.90
18141;DHT22;9196;49.194;12.526;2024-03-02T00:15:49;7.10;99.90
18141;DHT22;9196;49.194;12.526;2024-03-02T00:18:19;7.10;99.90
18141;DHT22;9196;49.194;12.526;2024-03-02T00:20:47;7.10;99.90
18141;DHT22;9196;49.194;12.526;2024-03-02T00:23:15;7.00;99.90
18141;DHT22;9196;49.194;12.526;2024-03-02T00:25:44;7.00;99.90
18141;DHT22;9196;49.194;12.526;2024-03-02T00:28:14;7.00;99.90
18141;DHT22;9196;49.194;12.526;2024-03-02T00:31:04;7.00;99.90
18141;DHT22;9196;49.194;12.526;2024-03-02T00:33:32;6.90;99.90
18141;DHT22;9196;49.194;12.526;2024-03-02T00:36:02;7.00;99.90
18141;DHT22;9196;49.194;12.526;2024-03-02T00:38:30;6.90;99.90
18141;DHT22;9196;49.194;12.526;2024-03-02T00:40:58;6.90;99.90
18141;DHT22;9196;49.194;12.526;2024-03-02T00:43:56;6.80;99.90
18141;DHT22;9196;49.194;12.526;2024-03-02T00:46:23;6.90;99.90
18141;DHT22;9196;49.194;12.526;2024-03-02T00:48:55;6.80;99.90
18141;DHT22;9196;49.194;12.526;2024-03-02T00:51:25;6.80;99.90
18141;DHT22;9196;49.194;12.526;2024-03-02T00:53:53;6.80;99.90
18141;DHT22;9196;49.194;12.526;2024-03-02T00:56:22;6.90;99.90
18141;DHT22;9196;49.194;12.526;2024-03-02T00:58:50;6.90;99.90
18141;DHT22;9196;49.194;12.526;2024-03-02T01:01:17;6.90;99.90
18141;DHT22;9196;49.194;12.526;2024-03-02T01:03:45;6.90;99.90
18141;DHT22;9196;49.194;12.526;2024-03-02T01:06:12;6.90;99.90
18141;DHT22;9196;49.194;12.526;2024-03-02T01:08:40;6.90;99.90
18141;DHT22;9196;49.194;12.526;2024-03-02T01:11:07;6.90;99.90
18141;DHT22;9196;49.194;12.526;2024-03-02T01:13:34;6.90;99.90
18141;DHT22;9196;49.194;12.526;2024-03-02T01:16:01;6.90;99.90
18141;DHT22;9196;49.194;12.526;2024-03-02T01:18:29;6.80;99.90
18141;DHT22;9196;49.194;12.526;2024-03-02T01:20:57;6.80;99.90
18141;DHT22;9196;49.194;12.526;2024-03-02T01:23:24;6.70;99.90
18141;DHT22;9196;49.194;12.526;2024-03-02T01:25:52;6.80;99.90
18141;DHT22;9196;49.194;12.526;2024-03-02T01:28:19;6.80;99.90
18141;DHT22;9196;49.194;12.526;2024-03-02T01:30:47;6.80;99.90
18141;DHT22;9196;49.194;12.526;2024-03-02T01:33:14;6.80;99.90
18141;DHT22;9196;49.194;12.526;2024-03-02T01:35:41;6.70;99.90
18141;DHT22;9196;49.194;12.526;2024-03-02T01:38:08;6.70;99.90
18141;DHT22;9196;49.194;12.526;2024-03-02T01:40:35;6.60;99.90
18141;DHT22;9196;49.194;12.526;2024-03-02T01:43:04;6.60;99.90
18141;DHT22;9196;49.194;12.526;2024-03-02T01:45:31;6.60;99.90
18141;DHT22;9196;49.194;12.526;2024-03-02T01:47:58;6.60;99.90
18141;DHT22;9196;49.194;12.526;2024-03-02T01:50:26;6.60;99.90
18141;DHT22;9196;49.194;12.526;2024-03-02T01:52:54;6.60;99.90
18141;DHT22;9196;49.194;12.526;2024-03-02T01:55:21;6.60;99.90
18141;DHT22;9196;49.194;12.526;2024-03-02T01:57:48;6.60;99.90
18141;DHT22;9196;49.194;12.526;2024-03-02T02:00:18;6.60;99.90
18141;DHT22;9196;49.194;12.526;2024-03-02T02:02:45;6.70;99.90
18141;DHT22;9196;49.194;12.526;2024-03-02T02:05:12;6.60;99.90
18141;DHT22;9196;49.194;12.526;2024-03-02T02:07:40;6.60;99.90
18141;DHT22;9196;49.194;12.526;2024-03-02T02:10:08;6.70;99.90
18141;DHT22;9196;49.194;12.526;2024-03-02T02:12:35;6.60;99.90
18141;DHT22;9196;49.194;12.526;2024-03-02T02:15:02;6.70;99.90
18141;DHT22;9196;49.194;12.526;2024-03-02T02:17:30;6.70;99.90
18141;DHT22;9196;49.194;12.526;2024-03-02T02:19:57;6.80;99.90
18141;DHT22;9196;49.194;12.526;2024-03-02T02:22:25;6.80;99.90
18141;DHT22;9196;49.194;12.526;2024-03-02T02:24:52;6.70;99.90
18141;DHT22;9196;49.194;12.526;2024-03-02T02:27:19;6.80;99.90
18141;DHT22;9196;49.194;12.526;2024-03-02T02:29:45;6.80;99.90
18141;DHT22;9196;49.194;12.526;2024-03-02T02:32:12;6.80;99.90
18141;DHT22;9196;49.194;12.526;2024-03-02T02:34:39;6.90;99.90
18141;DHT22;9196;49.194;12.526;2024-03-02T02:37:06;6.90;99.90
18141;DHT22;9196;49.194;12.526;2024-03-02T02:39:34;6.90;99.90
18141;DHT22;9196;49.194;12.526;2024-03-02T02:42:01;6.90;99.90
18141;DHT22;9196;49.194;12.526;2024-03-02T02:44:28;6.90;99.90
18141;DHT22;9196;49.194;12.526;2024-03-02T02:46:55;7.00;99.90
18141;DHT22;9196;49.194;12.526;2024-03-02T02:49:22;7.00;99.90
18141;DHT22;9196;49.194;12.526;2024-03-02T02:51:49;6.90;99.90
18141;DHT22;9196;49.194;12.526;2024-03-02T02:54:16;7.00;99.90
18141;DHT22;9196;49.194;12.526;2024-03-02T02:56:44;6.90;99.90
18141;DHT22;9196;49.194;12.526;2024-03-02T02:59:11;6.90;99.90
18141;DHT22;9196;49.194;12.526;2024-03-02T03:01:38;7.00;99.90
18141;DHT22;9196;49.194;12.526;2024-03-02T03:04:05;7.00;99.90
18141;DHT22;9196;49.194;12.526;2024-03-02T03:06:32;7.00;99.90
18141;DHT22;9196;49.194;12.526;2024-03-02T03:08:58;7.00;99.90
18141;DHT22;9196;49.194;12.526;2024-03-02T03:11:25;7.00;99.90
18141;DHT22;9196;49.194;12.526;2024-03-02T03:13:54;7.00;99.90
18141;DHT22;9196;49.194;12.526;2024-03-02T03:16:21;7.00;99.90
18141;DHT22;9196;49.194;12.526;2024-03-02T03:18:47;7.00;99.90
18141;DHT22;9196;49.194;12.526;2024-03-02T03:21:17;7.10;99.90
18141;DHT22;9196;49.194;12.526;2024-03-02T03:23:43;7.00;99.90
18141;DHT22;9196;49.194;12.526;2024-03-02T03:26:10;7.00;99.90
18141;DHT22;9196;49.194;12.526;2024-03-02T03:28:37;7.00;99.90
18141;DHT22;9196;49.194;12.526;2024-03-02T03:31:05;7.00;99.90
18141;DHT22;9196;49.194;12.526;2024-03-02T03:33:32;7.00;99.90
18141;DHT22;9196;49.194;12.526;2024-03-02T03:36:00;7.00;99.90
18141;DHT22;9196;49.194;12.526;2024-03-02T03:38:28;7.00;99.90
18141;DHT22;9196;49.194;12.526;2024-03-02T03:40:55;7.00;99.90
18141;DHT22;9196;49.194;12.526;2024-03-02T03:43:22;7.10;99.90
18141;DHT22;9196;49.194;12.526;2024-03-02T03:45:49;7.10;99.90
18141;DHT22;9196;49.194;12.526;2024-03-02T03:48:17;7.10;99.90
18141;DHT22;9196;49.194;12.526;2024-03-02T03:50:44;7.10;99.90
18141;DHT22;9196;49.194;12.526;2024-03-02T03:53:11;7.10;99.90
18141;DHT22;9196;49.194;12.526;2024-03-02T03:55:37;7.10;99.90
18141;DHT22;9196;49.194;12.526;2024-03-02T03:58:04;7.10;99.90
18141;DHT22;9196;49.194;12.526;2024-03-02T04:00:31;7.10;99.90
18141;DHT22;9196;49.194;12.526;2024-03-02T04:02:58;7.20;99.90
18141;DHT22;9196;49.194;12.526;2024-03-02T04:05:26;7.10;99.90
18141;DHT22;9196;49.194;12.526;2024-03-02T04:07:53;7.00;99.90
18141;DHT22;9196;49.194;12.526;2024-03-02T04:10:19;7.00;99.90
18141;DHT22;9196;49.194;12.526;2024-03-02T04:12:46;7.00;99.90
18141;DHT22;9196;49.194;12.526;2024-03-02T04:15:13;7.10;99.90
18141;DHT22;9196;49.194;12.526;2024-03-02T04:17:40;7.10;99.90
18141;DHT22;9196;49.194;12.526;2024-03-02T04:20:07;7.00;99.90
18141;DHT22;9196;49.194;12.526;2024-03-02T04:22:35;7.00;99.90
18141;DHT22;9196;49.194;12.526;2024-03-02T04:25:03;7.00;99.90
18141;DHT22;9196;49.194;12.526;2024-03-02T04:27:31;7.00;99.90
18141;DHT22;9196;49.194;12.526;2024-03-02T04:29:58;7.00;99.90
18141;DHT22;9196;49.194;12.526;2024-03-02T04:32:26;7.10;99.90
18141;DHT22;9196;49.194;12.526;2024-03-02T04:34:53;7.10;99.90
18141;DHT22;9196;49.194;12.526;2024-03-02T04:37:20;7.10;99.90
18141;DHT22;9196;49.194;12.526;2024-03-02T04:39:48;7.10;99.90
18141;DHT22;9196;49.194;12.526;2024-03-02T04:42:15;7.10;99.90
18141;DHT22;9196;49.194;12.526;2024-03-02T04:44:42;7.10;99.90
18141;DHT22;9196;49.194;12.526;2024-03-02T04:47:08;7.10;99.90
18141;DHT22;9196;49.194;12.526;2024-03-02T04:49:35;7.00;99.90
18141;DHT22;9196;49.194;12.526;2024-03-02T04:52:02;7.00;99.90
18141;DHT22;9196;49.194;12.526;2024-03-02T04:54:29;7.00;99.90
18141;DHT22;9196;49.194;12.526;2024-03-02T04:56:57;7.00;99.90
18141;DHT22;9196;49.194;12.526;2024-03-02T04:59:24;7.00;99.90
18141;DHT22;9196;49.194;12.526;2024-03-02T05:01:51;7.00;99.90
18141;DHT22;9196;49.194;12.526;2024-03-02T05:04:18;6.90;99.90
18141;DHT22;9196;49.194;12.526;2024-03-02T05:06:45;6.90;99.90
18141;DHT22;9196;49.194;12.526;2024-03-02T05:09:17;6.90;99.90
18141;DHT22;9196;49.194;12.526;2024-03-02T05:11:44;6.90;99.90
18141;DHT22;9196;49.194;12.526;2024-03-02T05:14:37;7.00;99.90
18141;DHT22;9196;49.194;12.526;2024-03-02T05:17:04;7.00;99.90
18141;DHT22;9196;49.194;12.526;2024-03-02T05:19:31;7.00;99.90
18141;DHT22;9196;49.194;12.526;2024-03-02T05:21:58;7.00;99.90
18141;DHT22;9196;49.194;12.526;2024-03-02T05:24:25;6.90;99.90
18141;DHT22;9196;49.194;12.526;2024-03-02T05:26:53;6.90;99.90
18141;DHT22;9196;49.194;12.526;2024-03-02T05:29:20;6.90;99.90
18141;DHT22;9196;49.194;12.526;2024-03-02T05:31:48;6.90;99.90
18141;DHT22;9196;49.194;12.526;2024-03-02T05:34:15;6.90;99.90
18141;DHT22;9196;49.194;12.526;2024-03-02T05:36:42;6.90;99.90
18141;DHT22;9196;49.194;12.526;2024-03-02T05:39:09;6.90;99.90
18141;DHT22;9196;49.194;12.526;2024-03-02T05:41:36;6.90;99.90
18141;DHT22;9196;49.194;12.526;2024-03-02T05:44:04;7.00;99.90
18141;DHT22;9196;49.194;12.526;2024-03-02T05:46:31;7.00;99.90
18141;DHT22;9196;49.194;12.526;2024-03-02T05:49:00;7.00;99.90
18141;DHT22;9196;49.194;12.526;2024-03-02T05:51:26;7.00;99.90
18141;DHT22;9196;49.194;12.526;2024-03-02T05:53:53;6.90;99.90
18141;DHT22;9196;49.194;12.526;2024-03-02T05:56:20;7.00;99.90
18141;DHT22;9196;49.194;12.526;2024-03-02T05:58:47;6.90;99.90
18141;DHT22;9196;49.194;12.526;2024-03-02T06:01:26;6.90;99.90
18141;DHT22;9196;49.194;12.526;2024-03-02T06:03:55;6.90;99.90
18141;DHT22;9196;49.194;12.526;2024-03-02T06:06:23;6.90;99.90
18141;DHT22;9196;49.194;12.526;2024-03-02T06:08:50;6.90;99.90
18141;DHT22;9196;49.194;12.526;2024-03-02T06:11:18;7.00;99.90
18141;DHT22;9196;49.194;12.526;2024-03-02T06:13:45;7.00;99.90
18141;DHT22;9196;49.194;12.526;2024-03-02T06:16:12;7.10;99.90
18141;DHT22;9196;49.194;12.526;2024-03-02T06:18:39;7.20;99.90
18141;DHT22;9196;49.194;12.526;2024-03-02T06:21:06;7.20;99.90
18141;DHT22;9196;49.194;12.526;2024-03-02T06:23:35;7.20;99.90
18141;DHT22;9196;49.194;12.526;2024-03-02T06:26:02;7.30;99.90
18141;DHT22;9196;49.194;12.526;2024-03-02T06:28:28;7.40;99.90
18141;DHT22;9196;49.194;12.526;2024-03-02T06:30:55;7.50;99.90
18141;DHT22;9196;49.194;12.526;2024-03-02T06:33:22;7.50;99.90
18141;DHT22;9196;49.194;12.526;2024-03-02T06:35:49;7.60;99.90
18141;DHT22;9196;49.194;12.526;2024-03-02T06:38:16;7.60;99.90
18141;DHT22;9196;49.194;12.526;2024-03-02T06:40:44;7.60;99.90
18141;DHT22;9196;49.194;12.526;2024-03-02T06:43:11;7.70;99.90
18141;DHT22;9196;49.194;12.526;2024-03-02T06:45:38;7.70;99.90
18141;DHT22;9196;49.194;12.526;2024-03-02T06:48:05;7.60;99.90
18141;DHT22;9196;49.194;12.526;2024-03-02T06:50:32;7.70;99.90
18141;DHT22;9196;49.194;12.526;2024-03-02T06:52:59;7.70;99.90
18141;DHT22;9196;49.194;12.526;2024-03-02T06:55:26;7.70;99.90
18141;DHT22;9196;49.194;12.526;2024-03-02T06:57:54;7.70;99.90
18141;DHT22;9196;49.194;12.526;2024-03-02T07:00:21;7.60;99.90
18141;DHT22;9196;49.194;12.526;2024-03-02T07:02:47;7.60;99.90
18141;DHT22;9196;49.194;12.526;2024-03-02T07:05:15;7.70;99.90
18141;DHT22;9196;49.194;12.526;2024-03-02T07:07:42;7.60;99.90
18141;DHT22;9196;49.194;12.526;2024-03-02T07:10:09;7.60;99.90
18141;DHT22;9196;49.194;12.526;2024-03-02T07:12:36;7.60;99.90
18141;DHT22;9196;49.194;12.526;2024-03-02T07:15:05;7.60;99.90
18141;DHT22;9196;49.194;12.526;2024-03-02T07:17:54;7.70;99.90
18141;DHT22;9196;49.194;12.526;2024-03-02T07:20:21;7.60;99.90
18141;DHT22;9196;49.194;12.526;2024-03-02T07:22:48;7.70;99.90
18141;DHT22;9196;49.194;12.526;2024-03-02T07:25:15;7.70;99.90
18141;DHT22;9196;49.194;12.526;2024-03-02T07:27:41;7.70;99.90
18141;DHT22;9196;49.194;12.526;2024-03-02T07:30:14;7.70;99.90
18141;DHT22;9196;49.194;12.526;2024-03-02T07:32:41;7.80;99.90
18141;DHT22;9196;49.194;12.526;2024-03-02T07:35:11;7.80;99.90
18141;DHT22;9196;49.194;12.526;2024-03-02T07:37:38;7.80;99.90
18141;DHT22;9196;49.194;12.526;2024-03-02T07:40:05;7.80;99.90
18141;DHT22;9196;49.194;12.526;2024-03-02T07:42:37;7.80;99.90
18141;DHT22;9196;49.194;12.526;2024-03-02T07:45:05;7.70;99.90
18141;DHT22;9196;49.194;12.526;2024-03-02T07:47:34;7.70;99.90
18141;DHT22;9196;49.194;12.526;2024-03-02T07:50:01;7.70;99.90
18141;DHT22;9196;49.194;12.526;2024-03-02T07:52:28;7.70;99.90
18141;DHT22;9196;49.194;12.526;2024-03-02T07:54:55;7.70;99.90
18141;DHT22;9196;49.194;12.526;2024-03-02T07:57:22;7.70;99.90
18141;DHT22;9196;49.194;12.526;2024-03-02T07:59:49;7.70;99.90
18141;DHT22;9196;49.194;12.526;2024-03-02T08:02:16;7.70;99.90
18141;DHT22;9196;49.194;12.526;2024-03-02T08:04:44;7.70;99.90
18141;DHT22;9196;49.194;12.526;2024-03-02T08:07:12;7.70;99.90
18141;DHT22;9196;49.194;12.526;2024-03-02T08:09:39;7.80;99.90
18141;DHT22;9196;49.194;12.526;2024-03-02T08:12:06;7.80;99.90
18141;DHT22;9196;49.194;12.526;2024-03-02T08:14:33;7.90;99.90
18141;DHT22;9196;49.194;12.526;2024-03-02T08:17:00;8.00;99.90
18141;DHT22;9196;49.194;12.526;2024-03-02T08:19:27;7.90;99.90
18141;DHT22;9196;49.194;12.526;2024-03-02T08:21:55;7.90;99.90
18141;DHT22;9196;49.194;12.526;2024-03-02T08:24:22;8.00;99.90
18141;DHT22;9196;49.194;12.526;2024-03-02T08:26:49;8.00;99.90
18141;DHT22;9196;49.194;12.526;2024-03-02T08:29:16;8.00;99.90
18141;DHT22;9196;49.194;12.526;2024-03-02T08:31:43;8.10;99.90
18141;DHT22;9196;49.194;12.526;2024-03-02T08:34:10;8.10;99.90
18141;DHT22;9196;49.194;12.526;2024-03-02T08:36:37;8.20;99.90
18141;DHT22;9196;49.194;12.526;2024-03-02T08:39:07;8.30;99.90
18141;DHT22;9196;49.194;12.526;2024-03-02T08:41:41;8.40;99.90
18141;DHT22;9196;49.194;12.526;2024-03-02T08:44:09;8.60;99.90
18141;DHT22;9196;49.194;12.526;2024-03-02T08:46:36;8.70;99.90
18141;DHT22;9196;49.194;12.526;2024-03-02T08:49:04;8.80;99.90
18141;DHT22;9196;49.194;12.526;2024-03-02T08:51:33;8.90;99.90
18141;DHT22;9196;49.194;12.526;2024-03-02T08:54:00;9.10;99.90
18141;DHT22;9196;49.194;12.526;2024-03-02T08:56:28;9.20;99.90
18141;DHT22;9196;49.194;12.526;2024-03-02T08:58:55;9.20;99.90
18141;DHT22;9196;49.194;12.526;2024-03-02T09:01:22;9.10;99.90
18141;DHT22;9196;49.194;12.526;2024-03-02T09:03:49;9.00;99.90
18141;DHT22;9196;49.194;12.526;2024-03-02T09:06:17;9.00;99.90
18141;DHT22;9196;49.194;12.526;2024-03-02T09:08:45;9.00;99.90
18141;DHT22;9196;49.194;12.526;2024-03-02T09:11:13;8.80;99.90
18141;DHT22;9196;49.194;12.526;2024-03-02T09:13:41;8.70;99.90
18141;DHT22;9196;49.194;12.526;2024-03-02T09:16:09;8.70;99.90
18141;DHT22;9196;49.194;12.526;2024-03-02T09:18:37;8.80;99.90
18141;DHT22;9196;49.194;12.526;2024-03-02T09:21:04;8.80;99.90
18141;DHT22;9196;49.194;12.526;2024-03-02T09:23:32;8.90;99.90
18141;DHT22;9196;49.194;12.526;2024-03-02T09:25:59;8.80;99.90
18141;DHT22;9196;49.194;12.526;2024-03-02T09:28:26;8.80;99.90
18141;DHT22;9196;49.194;12.526;2024-03-02T09:30:54;8.80;99.90
18141;DHT22;9196;49.194;12.526;2024-03-02T09:33:21;8.70;99.90
18141;DHT22;9196;49.194;12.526;2024-03-02T09:35:48;8.80;99.90
18141;DHT22;9196;49.194;12.526;2024-03-02T09:38:15;8.90;99.90
18141;DHT22;9196;49.194;12.526;2024-03-02T09:40:42;9.00;99.90
18141;DHT22;9196;49.194;12.526;2024-03-02T09:43:10;9.10;99.90
18141;DHT22;9196;49.194;12.526;2024-03-02T09:45:37;9.30;99.90
18141;DHT22;9196;49.194;12.526;2024-03-02T09:48:07;9.30;99.90
18141;DHT22;9196;49.194;12.526;2024-03-02T09:50:34;9.50;99.90
18141;DHT22;9196;49.194;12.526;2024-03-02T09:53:01;9.60;99.90
18141;DHT22;9196;49.194;12.526;2024-03-02T09:55:28;9.60;99.90
18141;DHT22;9196;49.194;12.526;2024-03-02T09:57:56;9.80;99.90
18141;DHT22;9196;49.194;12.526;2024-03-02T10:00:23;9.70;99.90
18141;DHT22;9196;49.194;12.526;2024-03-02T10:02:50;9.90;99.90
18141;DHT22;9196;49.194;12.526;2024-03-02T10:05:25;9.90;99.90
18141;DHT22;9196;49.194;12.526;2024-03-02T10:07:59;9.60;99.90
18141;DHT22;9196;49.194;12.526;2024-03-02T10:10:34;9.60;99.90
18141;DHT22;9196;49.194;12.526;2024-03-02T10:13:05;9.80;99.90
18141;DHT22;9196;49.194;12.526;2024-03-02T10:15:32;10.00;99.90
18141;DHT22;9196;49.194;12.526;2024-03-02T10:17:59;10.00;99.90
18141;DHT22;9196;49.194;12.526;2024-03-02T10:20:28;9.80;99.90
18141;DHT22;9196;49.194;12.526;2024-03-02T10:22:55;9.70;99.90
18141;DHT22;9196;49.194;12.526;2024-03-02T10:25:29;9.70;99.90
18141;DHT22;9196;49.194;12.526;2024-03-02T10:27:58;9.80;99.90
18141;DHT22;9196;49.194;12.526;2024-03-02T10:30:25;9.80;99.90
18141;DHT22;9196;49.194;12.526;2024-03-02T10:32:53;9.70;99.90
18141;DHT22;9196;49.194;12.526;2024-03-02T10:35:22;9.80;99.90
18141;DHT22;9196;49.194;12.526;2024-03-02T10:37:53;9.80;99.90
18141;DHT22;9196;49.194;12.526;2024-03-02T10:40:22;9.80;99.90
18141;DHT22;9196;49.194;12.526;2024-03-02T10:42:50;10.00;99.90
18141;DHT22;9196;49.194;12.526;2024-03-02T10:45:19;10.20;99.90
18141;DHT22;9196;49.194;12.526;2024-03-02T10:47:47;10.30;99.90
18141;DHT22;9196;49.194;12.526;2024-03-02T10:50:14;10.30;99.90
18141;DHT22;9196;49.194;12.526;2024-03-02T10:52:41;10.40;99.90
18141;DHT22;9196;49.194;12.526;2024-03-02T10:55:10;10.50;99.90
18141;DHT22;9196;49.194;12.526;2024-03-02T10:57:41;10.40;99.90
18141;DHT22;9196;49.194;12.526;2024-03-02T11:00:13;10.30;99.90
18141;DHT22;9196;49.194;12.526;2024-03-02T11:02:49;10.20;99.90
18141;DHT22;9196;49.194;12.526;2024-03-02T11:05:24;10.20;99.90
18141;DHT22;9196;49.194;12.526;2024-03-02T11:07:53;10.30;99.90
18141;DHT22;9196;49.194;12.526;2024-03-02T11:10:24;10.50;99.90
18141;DHT22;9196;49.194;12.526;2024-03-02T11:12:55;10.70;99.90
18141;DHT22;9196;49.194;12.526;2024-03-02T11:15:25;10.80;99.90
18141;DHT22;9196;49.194;12.526;2024-03-02T11:17:53;11.00;99.90
18141;DHT22;9196;49.194;12.526;2024-03-02T11:20:20;11.20;99.90
18141;DHT22;9196;49.194;12.526;2024-03-02T11:22:48;11.30;99.90
18141;DHT22;9196;49.194;12.526;2024-03-02T11:25:34;11.20;99.90
18141;DHT22;9196;49.194;12.526;2024-03-02T11:28:02;11.00;99.90
18141;DHT22;9196;49.194;12.526;2024-03-02T11:30:49;10.50;99.90
18141;DHT22;9196;49.194;12.526;2024-03-02T11:33:26;10.50;99.90
18141;DHT22;9196;49.194;12.526;2024-03-02T11:35:56;10.40;99.90
18141;DHT22;9196;49.194;12.526;2024-03-02T11:38:28;10.40;99.90
18141;DHT22;9196;49.194;12.526;2024-03-02T11:40:58;10.50;99.90
18141;DHT22;9196;49.194;12.526;2024-03-02T11:43:26;10.60;99.90
18141;DHT22;9196;49.194;12.526;2024-03-02T11:45:57;10.80;99.90
18141;DHT22;9196;49.194;12.526;2024-03-02T11:48:25;10.90;99.90
18141;DHT22;9196;49.194;12.526;2024-03-02T11:50:52;10.90;99.90
18141;DHT22;9196;49.194;12.526;2024-03-02T11:53:20;11.00;99.90
18141;DHT22;9196;49.194;12.526;2024-03-02T11:55:47;11.30;99.90
18141;DHT22;9196;49.194;12.526;2024-03-02T11:58:17;11.80;99.90
18141;DHT22;9196;49.194;12.526;2024-03-02T12:00:45;12.10;99.90
18141;DHT22;9196;49.194;12.526;2024-03-02T12:03:14;12.40;99.90
18141;DHT22;9196;49.194;12.526;2024-03-02T12:05:41;12.70;99.90
18141;DHT22;9196;49.194;12.526;2024-03-02T12:08:08;12.70;99.90
18141;DHT22;9196;49.194;12.526;2024-03-02T12:10:36;12.70;99.90
18141;DHT22;9196;49.194;12.526;2024-03-02T12:13:05;12.60;99.90
18141;DHT22;9196;49.194;12.526;2024-03-02T12:15:35;12.60;99.90
18141;DHT22;9196;49.194;12.526;2024-03-02T12:18:03;12.80;99.90
18141;DHT22;9196;49.194;12.526;2024-03-02T12:20:33;13.20;99.90
18141;DHT22;9196;49.194;12.526;2024-03-02T12:23:01;13.60;99.90
18141;DHT22;9196;49.194;12.526;2024-03-02T12:25:28;13.90;99.90
18141;DHT22;9196;49.194;12.526;2024-03-02T12:27:56;13.80;99.90
18141;DHT22;9196;49.194;12.526;2024-03-02T12:30:23;13.90;99.90
18141;DHT22;9196;49.194;12.526;2024-03-02T12:32:52;14.00;99.90
18141;DHT22;9196;49.194;12.526;2024-03-02T12:35:19;13.80;99.90
18141;DHT22;9196;49.194;12.526;2024-03-02T12:37:47;13.20;99.90
18141;DHT22;9196;49.194;12.526;2024-03-02T12:40:16;13.10;99.90
18141;DHT22;9196;49.194;12.526;2024-03-02T12:42:44;12.90;99.90
18141;DHT22;9196;49.194;12.526;2024-03-02T12:45:11;12.70;99.90
18141;DHT22;9196;49.194;12.526;2024-03-02T12:47:40;12.70;99.90
18141;DHT22;9196;49.194;12.526;2024-03-02T12:50:09;12.70;99.90
18141;DHT22;9196;49.194;12.526;2024-03-02T12:52:36;12.60;99.90
18141;DHT22;9196;49.194;12.526;2024-03-02T12:55:05;12.90;99.90
18141;DHT22;9196;49.194;12.526;2024-03-02T12:57:32;13.10;99.90
18141;DHT22;9196;49.194;12.526;2024-03-02T13:00:00;13.00;99.90
18141;DHT22;9196;49.194;12.526;2024-03-02T13:02:28;13.20;99.90
18141;DHT22;9196;49.194;12.526;2024-03-02T13:04:57;13.50;99.90
18141;DHT22;9196;49.194;12.526;2024-03-02T13:07:26;13.50;99.90
18141;DHT22;9196;49.194;12.526;2024-03-02T13:09:53;13.90;99.90
18141;DHT22;9196;49.194;12.526;2024-03-02T13:12:22;14.50;99.90
18141;DHT22;9196;49.194;12.526;2024-03-02T13:14:49;14.70;99.90
18141;DHT22;9196;49.194;12.526;2024-03-02T13:17:17;14.50;99.90
18141;DHT22;9196;49.194;12.526;2024-03-02T13:19:53;14.60;99.90
18141;DHT22;9196;49.194;12.526;2024-03-02T13:22:20;14.40;99.90
18141;DHT22;9196;49.194;12.526;2024-03-02T13:24:49;14.80;99.90
18141;DHT22;9196;49.194;12.526;2024-03-02T13:27:16;15.10;99.90
18141;DHT22;9196;49.194;12.526;2024-03-02T13:29:45;15.20;99.90
18141;DHT22;9196;49.194;12.526;2024-03-02T13:32:12;15.40;99.90
18141;DHT22;9196;49.194;12.526;2024-03-02T13:34:40;15.40;99.90
18141;DHT22;9196;49.194;12.526;2024-03-02T13:37:07;15.30;99.90
18141;DHT22;9196;49.194;12.526;2024-03-02T13:39:34;15.30;99.90
18141;DHT22;9196;49.194;12.526;2024-03-02T13:42:07;15.20;99.90
18141;DHT22;9196;49.194;12.526;2024-03-02T13:44:34;15.10;99.90
18141;DHT22;9196;49.194;12.526;2024-03-02T13:47:02;15.00;99.90
18141;DHT22;9196;49.194;12.526;2024-03-02T13:49:29;14.80;99.90
18141;DHT22;9196;49.194;12.526;2024-03-02T13:52:01;14.80;99.90
18141;DHT22;9196;49.194;12.526;2024-03-02T13:54:37;14.60;99.90
18141;DHT22;9196;49.194;12.526;2024-03-02T13:57:04;14.20;99.90
18141;DHT22;9196;49.194;12.526;2024-03-02T13:59:32;13.90;99.90
18141;DHT22;9196;49.194;12.526;2024-03-02T14:01:59;13.90;99.90
18141;DHT22;9196;49.194;12.526;2024-03-02T14:04:26;14.10;99.90
18141;DHT22;9196;49.194;12.526;2024-03-02T14:06:53;14.40;99.90
18141;DHT22;9196;49.194;12.526;2024-03-02T14:09:21;14.80;99.90
18141;DHT22;9196;49.194;12.526;2024-03-02T14:11:49;15.00;99.90
18141;DHT22;9196;49.194;12.526;2024-03-02T14:14:16;15.30;99.90
18141;DHT22;9196;49.194;12.526;2024-03-02T14:16:45;15.60;99.90
18141;DHT22;9196;49.194;12.526;2024-03-02T14:19:12;15.80;99.90
18141;DHT22;9196;49.194;12.526;2024-03-02T14:21:40;16.00;99.90
18141;DHT22;9196;49.194;12.526;2024-03-02T14:24:06;16.20;99.90
18141;DHT22;9196;49.194;12.526;2024-03-02T14:26:34;16.00;99.40
18141;DHT22;9196;49.194;12.526;2024-03-02T14:29:02;15.70;99.90
18141;DHT22;9196;49.194;12.526;2024-03-02T14:31:29;15.30;99.90
18141;DHT22;9196;49.194;12.526;2024-03-02T14:33:58;15.10;99.90
18141;DHT22;9196;49.194;12.526;2024-03-02T14:36:25;15.10;99.90
18141;DHT22;9196;49.194;12.526;2024-03-02T14:38:53;15.40;99.90
18141;DHT22;9196;49.194;12.526;2024-03-02T14:41:20;15.80;99.90
18141;DHT22;9196;49.194;12.526;2024-03-02T14:43:46;16.00;99.90
18141;DHT22;9196;49.194;12.526;2024-03-02T14:46:15;16.00;99.90
18141;DHT22;9196;49.194;12.526;2024-03-02T14:48:43;16.10;99.30
18141;DHT22;9196;49.194;12.526;2024-03-02T14:51:12;16.00;99.90
18141;DHT22;9196;49.194;12.526;2024-03-02T14:53:39;16.00;99.90
18141;DHT22;9196;49.194;12.526;2024-03-02T14:56:06;16.30;99.40
18141;DHT22;9196;49.194;12.526;2024-03-02T14:58:33;16.40;98.80
18141;DHT22;9196;49.194;12.526;2024-03-02T15:01:00;16.50;98.40
18141;DHT22;9196;49.194;12.526;2024-03-02T15:03:27;16.40;99.90
18141;DHT22;9196;49.194;12.526;2024-03-02T15:05:54;16.40;98.90
18141;DHT22;9196;49.194;12.526;2024-03-02T15:08:23;16.00;99.90
18141;DHT22;9196;49.194;12.526;2024-03-02T15:10:50;15.80;99.90
18141;DHT22;9196;49.194;12.526;2024-03-02T15:13:18;16.00;99.90
18141;DHT22;9196;49.194;12.526;2024-03-02T15:15:45;16.00;99.90
18141;DHT22;9196;49.194;12.526;2024-03-02T15:18:11;16.10;99.90
18141;DHT22;9196;49.194;12.526;2024-03-02T15:20:38;16.10;99.90
18141;DHT22;9196;49.194;12.526;2024-03-02T15:23:06;15.70;99.90
18141;DHT22;9196;49.194;12.526;2024-03-02T15:25:44;15.80;99.90
18141;DHT22;9196;49.194;12.526;2024-03-02T15:28:11;15.90;99.90
18141;DHT22;9196;49.194;12.526;2024-03-02T15:30:39;16.10;99.90
18141;DHT22;9196;49.194;12.526;2024-03-02T15:33:06;16.20;99.90
18141;DHT22;9196;49.194;12.526;2024-03-02T15:35:35;16.30;99.90
18141;DHT22;9196;49.194;12.526;2024-03-02T15:38:02;16.30;99.90
18141;DHT22;9196;49.194;12.526;2024-03-02T15:40:31;16.30;99.90
18141;DHT22;9196;49.194;12.526;2024-03-02T15:42:59;16.40;99.60
18141;DHT22;9196;49.194;12.526;2024-03-02T15:45:26;16.20;99.50